Time;durP1;ratioP1;P1;durP2;ratioP2;P2;SDS_P1;SDS_P2;PMS_P1;PMS_P2;Temp;Humidity;BMP_temperature;BMP_pressure;BME280_temperature;BME280_humidity;BME280_pressure;Samples;Min_cycle;Max_cycle;Signal;HPM_P1;HPM_P2
2022/03/30 00:00:45;;;;;;;37.67;13.10;;;;;;;7.18;71.96;100792.69;4994744;28;20022;-85
2022/03/30 00:03:10;;;;;;;40.20;15.02;;;;;;;7.13;72.54;100787.59;4991203;28;20030;-85
2022/03/30 00:05:36;;;;;;;36.58;14.18;;;;;;;7.08;72.70;100791.97;4997293;28;20037;-85
2022/03/30 00:08:05;;;;;;;37.60;14.32;;;;;;;7.01;72.52;100792.88;4989847;28;20511;-85
2022/03/30 00:10:31;;;;;;;38.42;14.00;;;;;;;6.94;72.72;100797.25;4996647;28;20034;-85
2022/03/30 00:12:56;;;;;;;35.85;14.20;;;;;;;6.88;73.36;100799.88;4989493;28;20290;-85
2022/03/30 00:15:22;;;;;;;39.38;13.85;;;;;;;6.81;73.75;100793.06;4991177;28;20034;-85
2022/03/30 00:17:48;;;;;;;35.75;13.38;;;;;;;6.75;73.61;100801.69;5000857;28;20030;-85
2022/03/30 00:20:13;;;;;;;36.20;14.13;;;;;;;6.70;73.86;100800.88;4996273;28;20037;-85
2022/03/30 00:22:40;;;;;;;32.95;13.48;;;;;;;6.64;73.48;100798.38;4989556;28;20632;-85
2022/03/30 00:25:11;;;;;;;37.67;14.07;;;;;;;6.57;73.82;100788.97;4997698;28;20085;-85
2022/03/30 00:27:38;;;;;;;38.28;13.82;;;;;;;6.50;74.26;100792.47;4995312;28;20038;-85
2022/03/30 00:30:04;;;;;;;34.85;13.30;;;;;;;6.45;74.55;100794.22;4994294;28;20483;-85
2022/03/30 00:32:30;;;;;;;36.20;15.50;;;;;;;6.39;74.85;100790.84;5003835;28;20030;-85
2022/03/30 00:34:55;;;;;;;39.65;16.80;;;;;;;6.32;74.99;100796.06;4996754;28;20037;-85
2022/03/30 00:37:21;;;;;;;34.90;13.57;;;;;;;6.25;75.21;100790.94;4992526;28;20019;-85
2022/03/30 00:39:46;;;;;;;34.45;13.68;;;;;;;6.22;75.14;100788.38;4995755;28;20030;-85
2022/03/30 00:42:16;;;;;;;36.38;14.18;;;;;;;6.16;75.82;100788.44;5001137;28;20030;-85
2022/03/30 00:44:43;;;;;;;40.33;13.65;;;;;;;6.13;75.64;100784.19;5008402;28;20026;-85
2022/03/30 00:47:15;;;;;;;39.53;13.98;;;;;;;6.13;75.90;100781.59;5005591;28;20050;-85
2022/03/30 00:49:41;;;;;;;40.25;13.27;;;;;;;6.11;75.76;100772.19;4994476;28;20117;-85
2022/03/30 00:52:07;;;;;;;34.85;13.57;;;;;;;6.06;76.48;100779.94;4992886;28;20101;-85
2022/03/30 00:54:32;;;;;;;40.35;14.23;;;;;;;5.99;76.53;100778.25;5003576;28;20368;-85
2022/03/30 00:56:57;;;;;;;35.60;13.20;;;;;;;5.92;76.89;100772.31;4993363;28;20049;-85
2022/03/30 00:59:23;;;;;;;43.65;14.13;;;;;;;5.84;77.05;100771.44;5002747;28;20029;-85
2022/03/30 01:01:48;;;;;;;33.20;13.32;;;;;;;5.78;77.24;100775.78;5004366;28;20026;-85
2022/03/30 01:04:14;;;;;;;33.35;13.48;;;;;;;5.68;77.22;100772.38;5000112;28;20083;-85
2022/03/30 01:06:39;;;;;;;37.00;13.70;;;;;;;5.63;77.60;100765.56;4995214;28;20436;-85
2022/03/30 01:09:04;;;;;;;38.85;14.13;;;;;;;5.56;78.35;100773.31;5000021;28;20028;-85
2022/03/30 01:11:30;;;;;;;37.28;13.80;;;;;;;5.51;78.28;100772.47;5027337;28;20033;-85
2022/03/30 01:13:55;;;;;;;35.83;13.13;;;;;;;5.46;78.35;100763.06;4997335;28;20034;-85
2022/03/30 01:16:23;;;;;;;36.67;13.93;;;;;;;5.40;78.63;100766.50;5007975;28;20030;-85
2022/03/30 01:18:48;;;;;;;34.30;13.35;;;;;;;5.39;78.93;100769.09;4992542;28;20057;-85
2022/03/30 01:21:13;;;;;;;39.25;13.63;;;;;;;5.32;79.21;100765.66;4990601;28;20057;-85
2022/03/30 01:23:39;;;;;;;37.33;13.50;;;;;;;5.27;79.44;100753.72;5001456;28;20077;-85
2022/03/30 01:26:05;;;;;;;34.25;12.77;;;;;;;5.23;79.45;100754.59;4996512;28;20034;-84
2022/03/30 01:28:35;;;;;;;38.80;14.20;;;;;;;5.18;79.30;100756.31;5005540;28;20075;-85
2022/03/30 01:33:48;;;;;;;36.30;13.52;;;;;;;5.05;79.88;100750.38;4984205;28;20045;-85
2022/03/30 01:36:16;;;;;;;38.30;14.57;;;;;;;5.01;80.19;100757.22;4997945;28;20084;-85
2022/03/30 01:38:43;;;;;;;37.47;13.80;;;;;;;4.95;80.32;100754.66;5002910;28;20037;-85
2022/03/30 01:41:09;;;;;;;38.95;14.85;;;;;;;4.93;80.69;100752.94;5006874;28;20091;-85
2022/03/30 01:43:34;;;;;;;44.25;14.95;;;;;;;4.86;81.00;100754.69;4989480;28;20030;-85
2022/03/30 01:45:59;;;;;;;39.83;14.38;;;;;;;4.82;80.43;100749.56;5000898;28;20046;-85
2022/03/30 01:48:25;;;;;;;37.95;14.15;;;;;;;4.78;80.97;100751.25;4991328;28;20474;-85
2022/03/30 01:50:50;;;;;;;37.78;14.23;;;;;;;4.73;81.18;100753.00;4996142;28;20021;-85
2022/03/30 01:53:15;;;;;;;36.72;13.85;;;;;;;4.72;81.40;100748.72;4990090;28;20439;-85
2022/03/30 01:55:41;;;;;;;44.97;15.20;;;;;;;4.66;81.49;100744.44;4995037;28;20445;-85
2022/03/30 01:58:06;;;;;;;37.83;14.32;;;;;;;4.64;81.84;100738.44;4991688;28;20110;-85
2022/03/30 02:00:32;;;;;;;39.78;14.00;;;;;;;4.61;81.35;100740.19;5003414;28;20392;-85
2022/03/30 02:02:58;;;;;;;39.50;14.73;;;;;;;4.58;81.58;100729.91;4990958;28;20449;-85
2022/03/30 02:05:23;;;;;;;39.22;14.20;;;;;;;4.55;82.19;100729.91;4992000;28;20029;-85
2022/03/30 02:07:49;;;;;;;37.00;13.40;;;;;;;4.53;81.92;100727.34;4993087;28;20034;-85
2022/03/30 02:10:14;;;;;;;43.00;15.75;;;;;;;4.56;82.39;100735.06;4990124;28;20037;-85
2022/03/30 02:12:40;;;;;;;41.30;13.90;;;;;;;4.56;81.84;100726.50;4993433;28;20061;-85
2022/03/30 02:15:07;;;;;;;41.55;14.18;;;;;;;4.57;82.17;100726.47;5005381;28;20100;-85
2022/03/30 02:17:33;;;;;;;36.58;13.70;;;;;;;4.57;82.47;100728.22;5005216;28;20046;-84
2022/03/30 02:19:59;;;;;;;40.67;14.32;;;;;;;4.54;81.97;100710.25;4991031;28;20036;-85
2022/03/30 02:22:24;;;;;;;43.45;14.98;;;;;;;4.53;82.35;100711.94;4991993;28;20417;-85
2022/03/30 02:24:51;;;;;;;45.45;14.60;;;;;;;4.49;82.15;100711.97;4990697;28;20105;-85
2022/03/30 02:27:19;;;;;;;46.15;14.77;;;;;;;4.47;82.39;100700.84;5004479;28;20434;-85
2022/03/30 02:29:46;;;;;;;38.17;14.50;;;;;;;4.43;82.30;100691.44;5001388;28;20515;-85
2022/03/30 02:32:11;;;;;;;44.72;13.52;;;;;;;4.40;82.55;100688.88;5006143;28;20041;-85
2022/03/30 02:34:36;;;;;;;39.13;13.57;;;;;;;4.41;82.54;100688.03;4998748;28;20038;-85
2022/03/30 02:37:02;;;;;;;42.00;14.20;;;;;;;4.40;82.62;100689.72;4998268;28;20760;-85
2022/03/30 02:39:27;;;;;;;40.88;14.07;;;;;;;4.44;82.73;100685.44;4991032;28;20434;-84
2022/03/30 02:41:52;;;;;;;44.95;14.57;;;;;;;4.46;82.76;100684.59;4997737;28;20069;-85
2022/03/30 02:44:18;;;;;;;40.30;14.45;;;;;;;4.50;82.76;100691.44;4991036;28;20073;-85
2022/03/30 02:46:43;;;;;;;41.20;14.10;;;;;;;4.47;82.48;100683.72;4995155;28;20027;-85
2022/03/30 02:49:09;;;;;;;40.17;13.35;;;;;;;4.48;82.39;100679.47;4990053;28;20578;-85
2022/03/30 02:51:35;;;;;;;38.28;13.93;;;;;;;4.50;82.82;100681.19;4993928;28;20038;-84
2022/03/30 02:54:00;;;;;;;41.95;14.10;;;;;;;4.47;82.40;100673.47;4992779;28;20048;-85
2022/03/30 02:56:25;;;;;;;32.63;13.35;;;;;;;4.50;82.99;100685.44;5012563;28;20383;-85
2022/03/30 02:58:51;;;;;;;37.45;14.00;;;;;;;4.48;82.79;100682.88;4996505;28;20117;-85
2022/03/30 03:01:16;;;;;;;39.53;14.90;;;;;;;4.49;82.52;100673.47;4999375;28;20101;-85
2022/03/30 03:03:41;;;;;;;38.95;13.77;;;;;;;4.46;82.32;100669.19;4989316;28;20614;-85
2022/03/30 03:06:07;;;;;;;42.60;13.90;;;;;;;4.45;82.83;100666.63;4996738;28;20030;-84
2022/03/30 03:08:32;;;;;;;39.83;13.27;;;;;;;4.45;82.87;100677.75;4993576;28;20561;-85
2022/03/30 03:10:57;;;;;;;37.92;13.95;;;;;;;4.46;82.96;100671.75;4997329;28;20273;-85
2022/03/30 03:13:23;;;;;;;47.20;14.68;;;;;;;4.41;83.26;100660.66;4998244;28;20113;-85
2022/03/30 03:15:49;;;;;;;39.97;13.93;;;;;;;4.41;83.30;100673.47;4992688;28;20030;-85
2022/03/30 03:18:14;;;;;;;40.20;14.07;;;;;;;4.37;83.20;100670.03;4988762;28;20061;-85
2022/03/30 03:20:45;;;;;;;39.97;14.32;;;;;;;4.34;83.38;100664.06;5002922;28;20048;-85
2022/03/30 03:23:11;;;;;;;38.65;13.88;;;;;;;4.33;83.57;100664.94;4989897;28;20034;-85
2022/03/30 03:25:37;;;;;;;43.15;13.68;;;;;;;4.30;83.10;100658.09;5001984;28;20081;-85
2022/03/30 03:28:04;;;;;;;42.63;14.40;;;;;;;4.27;83.66;100652.97;4999794;28;20034;-85
2022/03/30 03:30:30;;;;;;;37.65;13.30;;;;;;;4.26;83.79;100658.94;4990630;28;20080;-85
2022/03/30 03:32:59;;;;;;;40.40;14.25;;;;;;;4.27;83.83;100657.25;4998439;28;20038;-85
2022/03/30 03:35:25;;;;;;;39.40;13.52;;;;;;;4.28;83.24;100658.97;4990989;28;20110;-85
2022/03/30 03:37:51;;;;;;;34.15;13.32;;;;;;;4.28;83.54;100648.69;4995624;28;20163;-85
2022/03/30 03:40:17;;;;;;;42.33;14.30;;;;;;;4.27;83.58;100657.25;4990147;28;20112;-85
2022/03/30 03:42:43;;;;;;;40.45;13.93;;;;;;;4.25;83.45;100649.53;4996670;28;20065;-85
2022/03/30 03:45:09;;;;;;;39.00;12.93;;;;;;;4.21;83.07;100650.41;4992268;28;20092;-85
2022/03/30 03:47:34;;;;;;;36.20;12.68;;;;;;;4.17;83.72;100646.13;4993869;28;20105;-85
2022/03/30 03:50:00;;;;;;;37.47;13.00;;;;;;;4.14;83.94;100642.72;4991424;28;20038;-85
2022/03/30 03:52:25;;;;;;;42.78;13.25;;;;;;;4.12;84.26;100636.72;4991002;28;20040;-85
2022/03/30 03:54:51;;;;;;;43.05;15.02;;;;;;;4.11;83.97;100642.72;4993768;28;20112;-85
2022/03/30 03:57:16;;;;;;;39.60;12.93;;;;;;;4.11;84.24;100650.41;4993647;28;20036;-85
2022/03/30 03:59:44;;;;;;;37.90;14.02;;;;;;;4.12;84.03;100641.88;4994597;28;20023;-85
2022/03/30 04:02:09;;;;;;;40.88;13.40;;;;;;;4.09;83.79;100641.88;4989375;28;20031;-85
2022/03/30 04:04:37;;;;;;;43.22;13.98;;;;;;;4.04;83.98;100630.75;4994101;28;20023;-85
2022/03/30 04:07:03;;;;;;;36.13;12.93;;;;;;;3.99;84.56;100633.31;4997892;28;20026;-85
2022/03/30 04:09:28;;;;;;;43.33;14.02;;;;;;;3.94;85.18;100638.47;5007893;28;20398;-85
2022/03/30 04:11:54;;;;;;;38.42;12.75;;;;;;;3.89;84.15;100632.47;4996984;28;20022;-85
2022/03/30 04:14:19;;;;;;;39.67;13.45;;;;;;;3.85;84.71;100624.78;4999756;28;20041;-85
2022/03/30 04:16:47;;;;;;;35.47;12.77;;;;;;;3.80;85.29;100629.06;4994821;28;20037;-85
2022/03/30 04:19:15;;;;;;;40.60;14.55;;;;;;;3.74;84.87;100631.63;5004347;28;20020;-85
2022/03/30 04:21:41;;;;;;;37.65;13.13;;;;;;;3.69;85.16;100625.63;4994399;28;20526;-85
2022/03/30 04:24:06;;;;;;;43.22;13.73;;;;;;;3.63;85.27;100620.47;5008911;28;20573;-85
2022/03/30 04:26:32;;;;;;;41.85;13.88;;;;;;;3.54;85.50;100629.91;4989918;28;20050;-85
2022/03/30 04:28:57;;;;;;;37.42;14.18;;;;;;;3.50;85.40;100635.00;5000063;28;20065;-85
2022/03/30 04:31:22;;;;;;;39.60;14.07;;;;;;;3.44;85.27;100635.00;5002056;28;20027;-84
2022/03/30 04:33:48;;;;;;;57.00;21.05;;;;;;;3.39;86.12;100640.13;4991694;28;20042;-85
2022/03/30 04:36:13;;;;;;;117.27;52.27;;;;;;;3.35;86.90;100627.28;4995613;28;20066;-85
2022/03/30 04:38:38;;;;;;;100.60;46.85;;;;;;;3.34;86.79;100630.72;5003074;28;20317;-85
2022/03/30 04:41:04;;;;;;;88.20;37.38;;;;;;;3.28;87.04;100621.28;4997971;28;20022;-85
2022/03/30 04:43:30;;;;;;;59.72;22.38;;;;;;;3.29;87.35;100624.69;5003721;28;20038;-85
2022/03/30 04:45:56;;;;;;;51.33;18.33;;;;;;;3.28;87.28;100628.97;4992418;28;20030;-84
2022/03/30 04:48:22;;;;;;;45.83;15.63;;;;;;;3.26;87.02;100625.56;5004219;28;20508;-85
2022/03/30 04:50:49;;;;;;;42.90;14.77;;;;;;;3.22;87.36;100630.66;4994458;28;20064;-85
2022/03/30 04:53:15;;;;;;;42.35;13.55;;;;;;;3.15;87.18;100630.66;5003519;28;20026;-85
2022/03/30 04:55:40;;;;;;;47.63;14.93;;;;;;;3.12;87.50;100635.78;5001753;28;20045;-85
2022/03/30 04:58:08;;;;;;;40.30;12.98;;;;;;;3.08;87.93;100636.59;4996865;28;20562;-85
2022/03/30 05:00:33;;;;;;;47.60;14.32;;;;;;;3.06;87.97;100634.91;4994302;28;20023;-85
2022/03/30 05:02:58;;;;;;;38.22;14.65;;;;;;;3.01;88.22;100631.44;4996995;28;20376;-85
2022/03/30 05:05:24;;;;;;;44.08;14.07;;;;;;;2.99;88.19;100638.28;5000588;28;20034;-84
2022/03/30 05:07:49;;;;;;;40.28;14.40;;;;;;;2.95;88.45;100637.41;4994599;28;20054;-85
2022/03/30 05:10:15;;;;;;;47.28;14.13;;;;;;;2.92;88.53;100646.78;4992481;28;20417;-84
2022/03/30 05:12:41;;;;;;;46.65;13.50;;;;;;;2.89;88.84;100634.81;4998307;28;20038;-85
2022/03/30 05:15:09;;;;;;;40.35;13.48;;;;;;;2.87;88.65;100631.41;4990351;28;20057;-85
2022/03/30 05:17:38;;;;;;;41.17;13.50;;;;;;;2.85;89.30;100627.13;5005562;28;20038;-85
2022/03/30 05:20:04;;;;;;;45.47;14.38;;;;;;;2.84;89.00;100630.53;4985632;28;20494;-85
2022/03/30 05:22:29;;;;;;;45.67;14.65;;;;;;;2.82;89.12;100637.34;4995849;28;20084;-85
2022/03/30 05:24:55;;;;;;;42.25;13.77;;;;;;;2.80;89.39;100624.53;4992287;28;20077;-85
2022/03/30 05:27:21;;;;;;;40.33;13.18;;;;;;;2.76;89.39;100628.81;5001659;28;20025;-85
2022/03/30 05:29:46;;;;;;;40.95;13.73;;;;;;;2.77;88.83;100619.44;4991482;28;20314;-85
2022/03/30 05:32:11;;;;;;;50.73;14.10;;;;;;;2.72;89.23;100611.75;5005807;28;20041;-85
2022/03/30 05:34:36;;;;;;;39.20;13.20;;;;;;;2.72;89.04;100616.88;4991861;28;20278;-84
2022/03/30 05:37:03;;;;;;;41.28;13.85;;;;;;;2.71;89.24;100610.03;4996182;28;20030;-84
2022/03/30 05:39:29;;;;;;;43.85;13.98;;;;;;;2.75;89.45;100616.00;4990668;28;20022;-85
2022/03/30 05:41:55;;;;;;;43.67;14.70;;;;;;;2.75;89.60;100608.31;5002143;28;20026;-85
2022/03/30 05:44:20;;;;;;;39.95;14.02;;;;;;;2.81;89.87;100613.47;4994134;28;20556;-85
2022/03/30 05:46:46;;;;;;;40.42;13.40;;;;;;;2.84;89.56;100616.03;5001612;28;20482;-84
2022/03/30 05:49:11;;;;;;;46.88;14.63;;;;;;;2.87;89.28;100607.50;4990421;28;20073;-85
2022/03/30 05:51:36;;;;;;;45.53;13.73;;;;;;;2.94;89.13;100609.25;5014217;28;20033;-84
2022/03/30 05:54:02;;;;;;;43.88;13.60;;;;;;;3.02;89.69;100610.97;4989328;28;20690;-85
2022/03/30 05:59:12;;;;;;;44.58;13.18;;;;;;;3.16;88.28;100616.13;4991464;28;20645;-85
2022/03/30 06:01:38;;;;;;;42.13;13.82;;;;;;;3.26;88.14;100619.59;4991053;28;20260;-84
2022/03/30 06:04:04;;;;;;;40.75;13.20;;;;;;;3.33;88.34;100609.38;4991107;28;20025;-85
2022/03/30 06:06:29;;;;;;;44.40;13.75;;;;;;;3.48;88.22;100617.06;4990912;28;20026;-85
2022/03/30 06:08:55;;;;;;;45.55;14.13;;;;;;;3.68;87.33;100614.53;4991275;28;20033;-85
2022/03/30 06:11:20;;;;;;;43.33;14.25;;;;;;;3.86;86.59;100618.81;4991286;28;20089;-84
2022/03/30 06:13:45;;;;;;;40.67;13.25;;;;;;;4.05;86.16;100624.78;4990973;28;20041;-85
2022/03/30 06:16:13;;;;;;;41.03;14.02;;;;;;;4.18;85.13;100621.34;5001934;28;20022;-84
2022/03/30 06:18:39;;;;;;;42.83;13.02;;;;;;;4.16;84.17;100618.75;4993527;28;20036;-84
2022/03/30 06:21:04;;;;;;;42.50;12.63;;;;;;;4.14;85.29;100617.06;4981272;28;20435;-85
2022/03/30 06:23:30;;;;;;;41.60;12.85;;;;;;;4.23;84.72;100622.19;4973198;28;20512;-84
2022/03/30 06:25:55;;;;;;;36.15;13.80;;;;;;;4.30;84.26;100618.75;4990689;28;20166;-85
2022/03/30 06:28:24;;;;;;;38.58;13.82;;;;;;;4.45;84.33;100620.44;4990279;28;20057;-85
2022/03/30 06:30:49;;;;;;;42.13;13.88;;;;;;;4.76;84.37;100617.78;4994666;28;20034;-85
2022/03/30 06:33:15;;;;;;;42.58;12.68;;;;;;;5.36;82.76;100615.75;4990046;28;20447;-85
2022/03/30 06:35:40;;;;;;;39.87;13.03;;;;;;;6.05;81.48;100612.69;4987445;28;20030;-84
2022/03/30 06:38:06;;;;;;;39.63;12.48;;;;;;;6.70;78.61;100604.28;4985763;28;20459;-84
2022/03/30 06:40:33;;;;;;;34.38;12.30;;;;;;;6.96;77.08;100612.53;4984964;28;20139;-85
2022/03/30 06:43:00;;;;;;;33.63;11.90;;;;;;;6.85;74.67;100611.84;4983449;28;20054;-85
2022/03/30 06:45:25;;;;;;;35.20;12.65;;;;;;;6.90;75.45;100609.19;4995728;28;20037;-85
2022/03/30 06:47:51;;;;;;;37.13;13.57;;;;;;;6.98;73.00;100615.97;4995015;28;20041;-85
2022/03/30 06:50:18;;;;;;;34.80;12.23;;;;;;;6.95;73.34;100616.00;4991395;28;20027;-85
2022/03/30 06:52:44;;;;;;;33.58;13.18;;;;;;;6.84;72.49;100617.84;4989999;28;20026;-84
2022/03/30 06:55:10;;;;;;;33.53;12.48;;;;;;;6.70;73.04;100623.16;4990320;28;20032;-85
2022/03/30 06:57:36;;;;;;;31.98;12.68;;;;;;;6.64;73.61;100628.38;4990527;28;20109;-84
2022/03/30 07:00:02;;;;;;;35.47;13.57;;;;;;;6.71;73.79;100617.16;4991218;28;20462;-83
2022/03/30 07:02:28;;;;;;;37.13;13.10;;;;;;;6.89;73.07;100618.63;4996097;28;20034;-83
2022/03/30 07:04:53;;;;;;;36.58;13.85;;;;;;;6.98;72.84;100617.69;5002351;28;20042;-83
2022/03/30 07:10:18;;;;;;;40.28;13.45;;;;;;;6.99;72.61;100617.66;4985767;28;20037;-83
2022/03/30 07:12:47;;;;;;;37.13;13.00;;;;;;;7.08;73.17;100612.41;4988977;28;20106;-83
2022/03/30 07:15:15;;;;;;;41.28;14.02;;;;;;;7.17;71.54;100613.97;4988584;28;20022;-83
2022/03/30 07:17:51;;;;;;;35.58;13.15;;;;;;;7.26;71.60;100615.59;4990589;28;20026;-83
2022/03/30 07:20:18;;;;;;;38.45;13.73;;;;;;;7.25;70.37;100611.31;5001198;28;20049;-83
2022/03/30 07:22:44;;;;;;;40.15;14.07;;;;;;;7.26;70.92;100603.56;4997223;28;20098;-83
2022/03/30 07:25:10;;;;;;;34.90;13.05;;;;;;;7.35;70.66;100611.16;5001856;28;20054;-83
2022/03/30 07:27:38;;;;;;;43.15;14.23;;;;;;;7.54;70.91;100607.44;4995097;28;20053;-83
2022/03/30 07:30:05;;;;;;;39.25;13.10;;;;;;;7.82;68.85;100607.88;4978517;28;20054;-85
2022/03/30 07:32:31;;;;;;;36.35;13.57;;;;;;;7.96;68.63;100615.38;4988617;28;20026;-85
2022/03/30 07:34:56;;;;;;;36.33;13.02;;;;;;;8.12;67.86;100610.81;4991377;28;20031;-84
2022/03/30 07:37:21;;;;;;;33.47;13.00;;;;;;;8.06;68.36;100606.59;4990951;28;20418;-84
2022/03/30 07:39:46;;;;;;;39.03;13.57;;;;;;;8.12;68.05;100600.50;4989882;28;20307;-84
2022/03/30 07:42:12;;;;;;;34.08;13.88;;;;;;;8.28;67.14;100609.66;4992999;28;20065;-84
2022/03/30 07:44:37;;;;;;;37.53;13.13;;;;;;;8.33;67.24;100600.09;4993930;28;20038;-84
2022/03/30 07:47:04;;;;;;;41.33;13.73;;;;;;;8.40;66.81;100601.69;4994194;28;20113;-85
2022/03/30 07:49:30;;;;;;;32.67;12.18;;;;;;;8.35;67.47;100610.41;4992203;28;20658;-85
2022/03/30 07:51:55;;;;;;;33.17;13.48;;;;;;;8.09;66.58;100603.13;4999305;28;20488;-85
2022/03/30 07:54:21;;;;;;;32.35;12.75;;;;;;;7.99;67.79;100605.00;5004823;28;20033;-85
2022/03/30 07:56:46;;;;;;;29.70;11.67;;;;;;;8.03;68.35;100605.81;5002659;28;20030;-85
2022/03/30 07:59:11;;;;;;;30.73;11.77;;;;;;;8.07;67.09;100603.13;4992583;28;20711;-85
2022/03/30 08:01:36;;;;;;;29.83;11.20;;;;;;;8.41;66.57;100612.88;4986295;28;20281;-85
2022/03/30 08:04:02;;;;;;;33.13;11.93;;;;;;;8.76;65.24;100607.91;4992387;28;20270;-84
2022/03/30 08:06:27;;;;;;;30.38;10.77;;;;;;;8.95;65.18;100605.78;4994536;28;20369;-85
2022/03/30 08:08:52;;;;;;;28.92;11.85;;;;;;;9.04;63.76;100603.00;4993482;28;20026;-85
2022/03/30 08:11:18;;;;;;;28.80;11.43;;;;;;;9.13;64.69;100613.16;5000634;28;20070;-85
2022/03/30 08:13:43;;;;;;;30.42;12.07;;;;;;;9.26;63.10;100603.41;4997860;28;20292;-85
2022/03/30 08:16:08;;;;;;;28.83;11.85;;;;;;;9.38;62.48;100606.56;4998748;28;20491;-85
2022/03/30 08:18:34;;;;;;;29.80;11.87;;;;;;;9.68;62.96;100609.34;5001674;28;20030;-85
2022/03/30 08:23:42;;;;;;;24.70;11.32;;;;;;;10.31;60.25;100606.88;4987584;28;20151;-85
2022/03/30 08:26:08;;;;;;;27.40;11.50;;;;;;;10.56;59.69;100604.50;5000045;28;20054;-86
2022/03/30 08:28:33;;;;;;;25.52;11.88;;;;;;;10.73;60.21;100607.47;4998307;28;20034;-85
2022/03/30 08:30:58;;;;;;;29.70;12.27;;;;;;;10.80;58.07;100608.13;4999408;28;20034;-85
2022/03/30 08:33:26;;;;;;;27.10;11.73;;;;;;;10.99;58.95;100607.56;5001916;28;20761;-85
2022/03/30 08:35:53;;;;;;;27.98;12.35;;;;;;;10.91;58.17;100608.69;4997779;28;20026;-85
2022/03/30 08:38:18;;;;;;;32.92;13.07;;;;;;;10.77;58.38;100608.25;5002441;28;20534;-85
2022/03/30 08:40:44;;;;;;;28.52;12.25;;;;;;;10.84;58.71;100602.84;5002375;28;20030;-85
2022/03/30 08:43:10;;;;;;;24.60;12.57;;;;;;;10.82;58.11;100604.63;4993052;28;20419;-85
2022/03/30 08:45:35;;;;;;;27.25;11.95;;;;;;;10.96;58.60;100599.03;5004993;28;20029;-85
2022/03/30 08:48:01;;;;;;;29.40;12.43;;;;;;;10.98;57.46;100595.53;4992552;28;20531;-85
2022/03/30 08:50:27;;;;;;;27.48;12.10;;;;;;;11.21;57.70;100597.41;4997465;28;20682;-85
2022/03/30 08:52:55;;;;;;;27.98;12.35;;;;;;;11.30;56.86;100591.94;4981307;28;20530;-85
2022/03/30 08:55:21;;;;;;;24.17;12.02;;;;;;;11.36;56.92;100594.34;4998827;28;20030;-85
2022/03/30 08:57:47;;;;;;;26.40;12.45;;;;;;;11.45;56.13;100588.88;4992895;28;20403;-85
2022/03/30 09:00:18;;;;;;;29.52;12.80;;;;;;;11.29;57.25;100594.59;4996945;28;20488;-85
2022/03/30 09:02:46;;;;;;;27.58;12.35;;;;;;;11.13;57.08;100588.16;4992508;28;20042;-86
2022/03/30 09:05:19;;;;;;;32.15;13.13;;;;;;;11.10;57.56;100583.91;4991870;28;20042;-84
2022/03/30 09:07:50;;;;;;;28.15;12.77;;;;;;;11.17;57.03;100585.44;4994367;28;20030;-84
2022/03/30 09:10:20;;;;;;;27.55;11.32;;;;;;;11.29;57.66;100594.59;4999040;28;20026;-84
2022/03/30 09:12:49;;;;;;;28.58;12.10;;;;;;;11.18;56.21;100584.53;4992800;28;20555;-84
2022/03/30 09:15:15;;;;;;;28.67;12.75;;;;;;;11.20;56.92;100584.47;5023006;28;20030;-85
2022/03/30 09:17:41;;;;;;;27.75;12.70;;;;;;;11.21;57.40;100584.44;4993092;28;20045;-85
2022/03/30 09:20:13;;;;;;;27.98;11.90;;;;;;;11.24;57.65;100576.56;4990221;28;20399;-84
2022/03/30 09:22:43;;;;;;;27.20;11.70;;;;;;;11.19;56.42;100577.63;4991329;28;20027;-84
2022/03/30 09:25:09;;;;;;;28.55;11.68;;;;;;;11.08;56.99;100572.72;4995457;28;20519;-84
2022/03/30 09:27:39;;;;;;;29.58;12.15;;;;;;;11.11;57.16;100570.06;4989317;28;20074;-85
2022/03/30 09:30:06;;;;;;;28.13;12.55;;;;;;;11.13;56.40;100573.44;4988821;28;20022;-84
2022/03/30 09:32:32;;;;;;;30.35;12.15;;;;;;;11.15;57.00;100569.06;4984141;28;20065;-85
2022/03/30 09:34:57;;;;;;;29.10;11.73;;;;;;;11.24;57.17;100563.59;4991554;28;20396;-84
2022/03/30 09:37:23;;;;;;;30.55;12.15;;;;;;;11.32;57.94;100559.03;4986859;28;20022;-84
2022/03/30 09:39:49;;;;;;;27.58;11.60;;;;;;;11.40;57.29;100562.22;4987284;28;20380;-85
2022/03/30 09:42:16;;;;;;;25.80;11.45;;;;;;;11.45;56.30;100557.75;4992033;28;20120;-85
2022/03/30 09:44:53;;;;;;;29.27;11.82;;;;;;;11.40;55.76;100558.75;5001763;28;20125;-85
2022/03/30 09:47:21;;;;;;;26.85;10.85;;;;;;;11.19;55.88;100552.50;4991899;28;20058;-84
2022/03/30 09:49:48;;;;;;;26.58;11.88;;;;;;;11.06;56.35;100546.84;4988833;28;20096;-85
2022/03/30 09:52:27;;;;;;;25.85;11.55;;;;;;;11.03;57.51;100541.75;4991762;28;20373;-85
2022/03/30 09:54:54;;;;;;;23.48;11.48;;;;;;;11.11;58.41;100543.28;5019575;28;20085;-85
2022/03/30 09:57:37;;;;;;;28.00;12.50;;;;;;;11.10;56.59;100542.41;4992303;28;20022;-85
2022/03/30 10:00:18;;;;;;;26.33;11.20;;;;;;;11.13;57.07;100536.25;4989643;28;20571;-85
2022/03/30 10:02:52;;;;;;;25.55;12.15;;;;;;;11.16;56.48;100539.63;4991655;28;20049;-85
2022/03/30 10:05:20;;;;;;;26.75;12.15;;;;;;;11.07;56.96;100543.34;4990556;28;20502;-85
2022/03/30 10:07:46;;;;;;;30.02;11.80;;;;;;;11.13;56.64;100541.47;4990469;28;20073;-85
2022/03/30 10:10:13;;;;;;;24.60;11.73;;;;;;;11.11;55.87;100540.69;4991434;28;20395;-85
2022/03/30 10:12:39;;;;;;;28.13;12.00;;;;;;;11.13;56.78;100538.84;4992094;28;20072;-85
2022/03/30 10:15:06;;;;;;;29.52;11.82;;;;;;;11.15;56.82;100540.53;4992785;28;20033;-84
2022/03/30 10:17:32;;;;;;;26.55;12.65;;;;;;;11.16;56.08;100533.59;4998124;28;20550;-85
2022/03/30 10:20:01;;;;;;;26.40;11.50;;;;;;;11.25;56.23;100530.72;4981680;28;20427;-85
2022/03/30 10:22:38;;;;;;;23.17;11.52;;;;;;;11.37;57.39;100533.78;4990807;28;20037;-85
2022/03/30 10:25:12;;;;;;;26.20;11.63;;;;;;;11.35;55.29;100538.16;4990238;28;20030;-85
2022/03/30 10:27:53;;;;;;;25.98;11.93;;;;;;;11.26;56.42;100527.25;4990674;28;20030;-85
2022/03/30 10:30:27;;;;;;;25.77;11.52;;;;;;;11.34;56.17;100528.66;4994402;28;20029;-84
2022/03/30 10:32:58;;;;;;;29.00;11.93;;;;;;;11.31;55.51;100523.59;4995842;28;20034;-84
2022/03/30 10:35:38;;;;;;;29.60;11.70;;;;;;;11.36;56.71;100526.03;4989564;28;20034;-85
2022/03/30 10:38:04;;;;;;;28.33;12.82;;;;;;;11.38;56.18;100522.50;5000105;28;20388;-84
2022/03/30 10:40:29;;;;;;;28.52;11.68;;;;;;;11.44;56.92;100511.06;4999904;28;20494;-85
2022/03/30 10:42:58;;;;;;;28.27;11.63;;;;;;;11.46;54.72;100512.69;4993651;28;20062;-85
2022/03/30 10:45:41;;;;;;;28.73;12.35;;;;;;;11.45;55.30;100508.44;4998084;28;20028;-85
2022/03/30 10:48:17;;;;;;;26.25;11.27;;;;;;;11.44;55.72;100511.06;4991403;28;20077;-85
2022/03/30 10:50:55;;;;;;;24.65;11.68;;;;;;;11.31;56.40;100509.78;5004379;28;20108;-85
2022/03/30 10:53:34;;;;;;;26.27;12.15;;;;;;;11.26;55.89;100507.28;5001960;28;20049;-85
2022/03/30 10:56:14;;;;;;;24.00;11.35;;;;;;;11.13;56.75;100505.13;5001992;28;20045;-85
2022/03/30 10:58:59;;;;;;;23.88;11.45;;;;;;;11.29;57.92;100496.84;4991127;28;20121;-85
2022/03/30 11:01:32;;;;;;;25.35;11.10;;;;;;;11.45;57.56;100498.03;5019183;28;20022;-85
2022/03/30 11:04:02;;;;;;;25.42;10.85;;;;;;;11.63;56.44;100493.13;4991076;28;20483;-85
2022/03/30 11:06:29;;;;;;;25.95;11.32;;;;;;;11.76;54.94;100489.25;4990446;28;20030;-85
2022/03/30 11:09:02;;;;;;;21.95;11.30;;;;;;;11.80;54.94;100480.47;5004509;28;20116;-85
2022/03/30 11:11:34;;;;;;;25.30;10.95;;;;;;;11.89;54.28;100480.13;4999564;28;20037;-84
2022/03/30 11:14:29;;;;;;;25.75;10.82;;;;;;;11.93;55.43;100471.34;4990435;28;20026;-85
2022/03/30 11:17:04;;;;;;;25.45;11.80;;;;;;;11.85;54.75;100461.22;4992567;28;20061;-85
2022/03/30 11:19:48;;;;;;;23.98;10.80;;;;;;;11.85;54.56;100469.00;4998668;28;20041;-84
2022/03/30 11:22:21;;;;;;;23.02;10.88;;;;;;;11.82;55.42;100458.72;4995368;28;20027;-85
2022/03/30 11:25:07;;;;;;;23.23;10.63;;;;;;;11.80;54.66;100455.31;4988030;28;20034;-85